sensor_id;sensor_type;location;lat;lon;timestamp;temperature;humidity
75368;DHT22;63954;51.948;5.888;2022-10-15T14:32:45;18.38;72.27
75368;DHT22;63954;51.948;5.888;2022-10-15T14:35:23;18.14;73.73
75368;DHT22;63954;51.948;5.888;2022-10-15T14:37:59;17.95;75.33
75368;DHT22;63954;51.948;5.888;2022-10-15T14:40:27;17.83;75.83
75368;DHT22;63954;51.948;5.888;2022-10-15T14:43:05;17.73;76.47
75368;DHT22;63954;51.948;5.888;2022-10-15T14:45:38;17.64;77.15
75368;DHT22;63954;51.948;5.888;2022-10-15T14:48:11;17.56;77.52
75368;DHT22;63954;51.948;5.888;2022-10-15T14:50:45;17.48;77.47
75368;DHT22;63954;51.948;5.888;2022-10-15T14:53:18;17.38;77.64
75368;DHT22;63954;51.948;5.888;2022-10-15T14:55:49;17.29;77.78
75368;DHT22;63954;51.948;5.888;2022-10-15T14:58:19;17.20;77.97
75368;DHT22;63954;51.948;5.888;2022-10-15T15:00:54;17.09;78.08
75368;DHT22;63954;51.948;5.888;2022-10-15T15:03:30;17.00;78.21
75368;DHT22;63954;51.948;5.888;2022-10-15T15:05:57;16.92;78.49
75368;DHT22;63954;51.948;5.888;2022-10-15T15:08:25;16.85;78.52
75368;DHT22;63954;51.948;5.888;2022-10-15T15:10:55;16.80;78.67
75368;DHT22;63954;51.948;5.888;2022-10-15T15:13:24;16.77;78.61
75368;DHT22;63954;51.948;5.888;2022-10-15T15:15:52;16.73;78.52
75368;DHT22;63954;51.948;5.888;2022-10-15T15:18:25;16.67;78.66
75368;DHT22;63954;51.948;5.888;2022-10-15T15:21:00;16.66;78.23
75368;DHT22;63954;51.948;5.888;2022-10-15T15:23:43;16.66;78.14
75368;DHT22;63954;51.948;5.888;2022-10-15T15:26:15;16.70;78.02
75368;DHT22;63954;51.948;5.888;2022-10-15T15:28:44;16.66;77.98
75368;DHT22;63954;51.948;5.888;2022-10-15T15:31:16;16.63;77.81
75368;DHT22;63954;51.948;5.888;2022-10-15T15:33:47;16.60;77.79
75368;DHT22;63954;51.948;5.888;2022-10-15T15:36:18;16.59;77.53
75368;DHT22;63954;51.948;5.888;2022-10-15T15:38:45;16.58;77.31
75368;DHT22;63954;51.948;5.888;2022-10-15T15:41:17;16.52;77.37
75368;DHT22;63954;51.948;5.888;2022-10-15T15:43:48;16.47;77.42
75368;DHT22;63954;51.948;5.888;2022-10-15T15:46:16;16.41;77.53
75368;DHT22;63954;51.948;5.888;2022-10-15T15:48:44;16.35;77.85
75368;DHT22;63954;51.948;5.888;2022-10-15T15:51:18;16.30;78.04
75368;DHT22;63954;51.948;5.888;2022-10-15T15:53:46;16.27;78.05
75368;DHT22;63954;51.948;5.888;2022-10-15T15:56:17;16.19;78.05
75368;DHT22;63954;51.948;5.888;2022-10-15T15:58:44;16.14;78.18
75368;DHT22;63954;51.948;5.888;2022-10-15T16:01:14;16.07;78.23
75368;DHT22;63954;51.948;5.888;2022-10-15T16:03:41;16.04;78.23
75368;DHT22;63954;51.948;5.888;2022-10-15T16:06:15;15.99;78.30
75368;DHT22;63954;51.948;5.888;2022-10-15T16:08:49;15.92;78.29
75368;DHT22;63954;51.948;5.888;2022-10-15T16:11:19;15.84;78.44
75368;DHT22;63954;51.948;5.888;2022-10-15T16:13:46;15.76;78.56
75368;DHT22;63954;51.948;5.888;2022-10-15T16:16:14;15.70;78.49
75368;DHT22;63954;51.948;5.888;2022-10-15T16:18:41;15.65;78.51
75368;DHT22;63954;51.948;5.888;2022-10-15T16:21:09;15.60;78.34
75368;DHT22;63954;51.948;5.888;2022-10-15T16:23:36;15.54;78.07
75368;DHT22;63954;51.948;5.888;2022-10-15T16:26:05;15.49;77.95
75368;DHT22;63954;51.948;5.888;2022-10-15T16:28:32;15.42;77.90
75368;DHT22;63954;51.948;5.888;2022-10-15T16:31:15;15.33;77.94
75368;DHT22;63954;51.948;5.888;2022-10-15T16:36:13;15.16;78.43
75368;DHT22;63954;51.948;5.888;2022-10-15T16:38:41;15.07;78.77
75368;DHT22;63954;51.948;5.888;2022-10-15T16:41:11;14.98;78.95
75368;DHT22;63954;51.948;5.888;2022-10-15T16:43:40;14.89;78.95
75368;DHT22;63954;51.948;5.888;2022-10-15T16:46:11;14.85;78.93
75368;DHT22;63954;51.948;5.888;2022-10-15T16:48:38;14.78;78.78
75368;DHT22;63954;51.948;5.888;2022-10-15T16:51:07;14.74;78.88
75368;DHT22;63954;51.948;5.888;2022-10-15T16:53:37;14.67;78.81
75368;DHT22;63954;51.948;5.888;2022-10-15T16:56:09;14.62;78.79
75368;DHT22;63954;51.948;5.888;2022-10-15T16:58:38;14.54;78.92
75368;DHT22;63954;51.948;5.888;2022-10-15T17:01:06;14.41;79.14
75368;DHT22;63954;51.948;5.888;2022-10-15T17:03:35;14.35;79.27
75368;DHT22;63954;51.948;5.888;2022-10-15T17:06:06;14.30;79.30
75368;DHT22;63954;51.948;5.888;2022-10-15T17:08:37;14.22;79.60
75368;DHT22;63954;51.948;5.888;2022-10-15T17:11:07;14.14;79.88
75368;DHT22;63954;51.948;5.888;2022-10-15T17:13:35;14.09;80.12
75368;DHT22;63954;51.948;5.888;2022-10-15T17:16:13;14.01;80.27
75368;DHT22;63954;51.948;5.888;2022-10-15T17:18:41;13.94;80.66
75368;DHT22;63954;51.948;5.888;2022-10-15T17:21:10;13.85;80.96
75368;DHT22;63954;51.948;5.888;2022-10-15T17:23:37;13.81;81.16
75368;DHT22;63954;51.948;5.888;2022-10-15T17:26:07;13.76;81.20
75368;DHT22;63954;51.948;5.888;2022-10-15T17:28:34;13.73;81.40
75368;DHT22;63954;51.948;5.888;2022-10-15T17:31:03;13.69;81.35
75368;DHT22;63954;51.948;5.888;2022-10-15T17:33:38;13.65;81.54
75368;DHT22;63954;51.948;5.888;2022-10-15T17:36:07;13.64;81.69
75368;DHT22;63954;51.948;5.888;2022-10-15T17:38:35;13.62;81.55
75368;DHT22;63954;51.948;5.888;2022-10-15T17:41:05;13.61;81.50
75368;DHT22;63954;51.948;5.888;2022-10-15T17:43:34;13.59;81.50
75368;DHT22;63954;51.948;5.888;2022-10-15T17:46:03;13.58;81.48
75368;DHT22;63954;51.948;5.888;2022-10-15T17:48:31;13.54;81.48
75368;DHT22;63954;51.948;5.888;2022-10-15T17:51:01;13.53;81.56
75368;DHT22;63954;51.948;5.888;2022-10-15T17:53:29;13.51;81.47
75368;DHT22;63954;51.948;5.888;2022-10-15T17:55:56;13.50;81.49
75368;DHT22;63954;51.948;5.888;2022-10-15T17:58:33;13.49;81.56
75368;DHT22;63954;51.948;5.888;2022-10-15T18:01:14;13.47;81.35
75368;DHT22;63954;51.948;5.888;2022-10-15T18:03:57;13.45;81.59
75368;DHT22;63954;51.948;5.888;2022-10-15T18:06:26;13.44;81.39
75368;DHT22;63954;51.948;5.888;2022-10-15T18:09:04;13.41;81.33
75368;DHT22;63954;51.948;5.888;2022-10-15T18:11:43;13.40;81.30
75368;DHT22;63954;51.948;5.888;2022-10-15T18:14:20;13.36;81.30
75368;DHT22;63954;51.948;5.888;2022-10-15T18:16:52;13.33;81.25
75368;DHT22;63954;51.948;5.888;2022-10-15T18:19:24;13.31;81.21
75368;DHT22;63954;51.948;5.888;2022-10-15T18:21:57;13.31;81.51
75368;DHT22;63954;51.948;5.888;2022-10-15T18:34:25;13.25;81.12
75368;DHT22;63954;51.948;5.888;2022-10-15T18:45:49;13.33;80.96
75368;DHT22;63954;51.948;5.888;2022-10-15T18:49:55;13.34;80.94
75368;DHT22;63954;51.948;5.888;2022-10-15T18:59:09;13.33;80.81
75368;DHT22;63954;51.948;5.888;2022-10-15T19:11:09;13.32;80.77
75368;DHT22;63954;51.948;5.888;2022-10-15T19:13:38;13.32;80.67
75368;DHT22;63954;51.948;5.888;2022-10-15T19:16:07;13.33;80.71
75368;DHT22;63954;51.948;5.888;2022-10-15T19:18:40;13.31;80.78
75368;DHT22;63954;51.948;5.888;2022-10-15T19:21:13;13.29;80.72
75368;DHT22;63954;51.948;5.888;2022-10-15T19:23:53;13.26;80.64
75368;DHT22;63954;51.948;5.888;2022-10-15T19:26:23;13.24;80.78
75368;DHT22;63954;51.948;5.888;2022-10-15T19:29:00;13.24;80.85
75368;DHT22;63954;51.948;5.888;2022-10-15T19:34:18;13.29;80.62
75368;DHT22;63954;51.948;5.888;2022-10-15T19:36:53;13.32;80.40
75368;DHT22;63954;51.948;5.888;2022-10-15T19:39:33;13.38;80.30
75368;DHT22;63954;51.948;5.888;2022-10-15T19:42:40;13.45;80.17
75368;DHT22;63954;51.948;5.888;2022-10-15T19:45:08;13.50;79.88
75368;DHT22;63954;51.948;5.888;2022-10-15T19:47:35;13.56;79.67
75368;DHT22;63954;51.948;5.888;2022-10-15T19:50:07;13.64;79.52
75368;DHT22;63954;51.948;5.888;2022-10-15T19:52:37;13.70;79.28
75368;DHT22;63954;51.948;5.888;2022-10-15T19:55:08;13.75;79.29
75368;DHT22;63954;51.948;5.888;2022-10-15T19:58:10;13.78;79.06
75368;DHT22;63954;51.948;5.888;2022-10-15T20:01:05;13.83;78.97
75368;DHT22;63954;51.948;5.888;2022-10-15T20:03:57;13.90;78.87
75368;DHT22;63954;51.948;5.888;2022-10-15T20:06:40;13.91;78.66
75368;DHT22;63954;51.948;5.888;2022-10-15T20:10:51;13.93;78.59
75368;DHT22;63954;51.948;5.888;2022-10-15T20:12:30;13.92;78.59
75368;DHT22;63954;51.948;5.888;2022-10-15T20:15:13;13.92;78.49
75368;DHT22;63954;51.948;5.888;2022-10-15T20:21:25;13.90;78.40
75368;DHT22;63954;51.948;5.888;2022-10-15T20:23:55;13.89;78.34
75368;DHT22;63954;51.948;5.888;2022-10-15T20:26:22;13.86;78.39
75368;DHT22;63954;51.948;5.888;2022-10-15T20:28:52;13.84;78.37
75368;DHT22;63954;51.948;5.888;2022-10-15T20:31:21;13.83;78.40
75368;DHT22;63954;51.948;5.888;2022-10-15T20:33:56;13.83;78.33
75368;DHT22;63954;51.948;5.888;2022-10-15T20:36:26;13.83;78.39
75368;DHT22;63954;51.948;5.888;2022-10-15T20:38:53;13.86;78.34
75368;DHT22;63954;51.948;5.888;2022-10-15T20:41:22;13.92;78.39
75368;DHT22;63954;51.948;5.888;2022-10-15T20:43:53;13.96;78.04
75368;DHT22;63954;51.948;5.888;2022-10-15T20:46:27;13.99;77.72
75368;DHT22;63954;51.948;5.888;2022-10-15T20:49:02;14.01;77.59
75368;DHT22;63954;51.948;5.888;2022-10-15T20:51:34;13.98;77.65
75368;DHT22;63954;51.948;5.888;2022-10-15T20:54:04;13.95;77.80
75368;DHT22;63954;51.948;5.888;2022-10-15T20:56:34;13.90;77.86
75368;DHT22;63954;51.948;5.888;2022-10-15T20:59:01;13.86;77.98
75368;DHT22;63954;51.948;5.888;2022-10-15T21:01:33;13.83;78.04
75368;DHT22;63954;51.948;5.888;2022-10-15T21:04:07;13.82;78.05
75368;DHT22;63954;51.948;5.888;2022-10-15T21:06:45;13.81;78.26
75368;DHT22;63954;51.948;5.888;2022-10-15T21:09:20;13.78;78.17
75368;DHT22;63954;51.948;5.888;2022-10-15T21:11:47;13.77;78.26
75368;DHT22;63954;51.948;5.888;2022-10-15T21:14:15;13.75;78.19
75368;DHT22;63954;51.948;5.888;2022-10-15T21:16:44;13.75;78.29
75368;DHT22;63954;51.948;5.888;2022-10-15T21:19:13;13.70;78.26
75368;DHT22;63954;51.948;5.888;2022-10-15T21:21:40;13.70;78.18
75368;DHT22;63954;51.948;5.888;2022-10-15T21:24:07;13.69;78.19
75368;DHT22;63954;51.948;5.888;2022-10-15T21:26:35;13.68;78.14
75368;DHT22;63954;51.948;5.888;2022-10-15T21:29:05;13.65;78.10
75368;DHT22;63954;51.948;5.888;2022-10-15T21:31:36;13.64;78.11
75368;DHT22;63954;51.948;5.888;2022-10-15T21:34:05;13.62;78.08
75368;DHT22;63954;51.948;5.888;2022-10-15T21:36:32;13.61;78.12
75368;DHT22;63954;51.948;5.888;2022-10-15T21:39:04;13.56;78.11
75368;DHT22;63954;51.948;5.888;2022-10-15T21:41:36;13.55;78.22
75368;DHT22;63954;51.948;5.888;2022-10-15T21:44:05;13.53;78.27
75368;DHT22;63954;51.948;5.888;2022-10-15T21:46:33;13.49;78.35
75368;DHT22;63954;51.948;5.888;2022-10-15T21:49:05;13.46;78.27
75368;DHT22;63954;51.948;5.888;2022-10-15T21:51:37;13.40;78.37
75368;DHT22;63954;51.948;5.888;2022-10-15T21:54:05;13.38;78.48
75368;DHT22;63954;51.948;5.888;2022-10-15T21:56:36;13.34;78.61
75368;DHT22;63954;51.948;5.888;2022-10-15T21:59:04;13.32;78.63
75368;DHT22;63954;51.948;5.888;2022-10-15T22:01:33;13.29;78.68
75368;DHT22;63954;51.948;5.888;2022-10-15T22:04:11;13.27;78.66
75368;DHT22;63954;51.948;5.888;2022-10-15T22:06:42;13.24;78.66
75368;DHT22;63954;51.948;5.888;2022-10-15T22:09:11;13.20;78.75
75368;DHT22;63954;51.948;5.888;2022-10-15T22:11:40;13.16;78.82
75368;DHT22;63954;51.948;5.888;2022-10-15T22:14:10;13.12;78.89
75368;DHT22;63954;51.948;5.888;2022-10-15T22:16:38;13.10;78.92
75368;DHT22;63954;51.948;5.888;2022-10-15T22:19:12;13.06;78.81
75368;DHT22;63954;51.948;5.888;2022-10-15T22:21:45;13.04;78.78
75368;DHT22;63954;51.948;5.888;2022-10-15T22:24:15;13.02;78.90
75368;DHT22;63954;51.948;5.888;2022-10-15T22:26:47;13.00;78.82
75368;DHT22;63954;51.948;5.888;2022-10-15T22:29:17;13.01;78.78
75368;DHT22;63954;51.948;5.888;2022-10-15T22:31:45;13.01;78.72
75368;DHT22;63954;51.948;5.888;2022-10-15T22:34:16;13.01;78.79
75368;DHT22;63954;51.948;5.888;2022-10-15T22:36:46;13.01;78.79
75368;DHT22;63954;51.948;5.888;2022-10-15T22:39:17;13.00;78.76
75368;DHT22;63954;51.948;5.888;2022-10-15T22:41:46;12.97;78.85
75368;DHT22;63954;51.948;5.888;2022-10-15T22:44:18;12.97;78.88
75368;DHT22;63954;51.948;5.888;2022-10-15T22:46:47;12.99;79.04
75368;DHT22;63954;51.948;5.888;2022-10-15T22:49:19;13.00;79.00
75368;DHT22;63954;51.948;5.888;2022-10-15T22:51:47;13.02;79.02
75368;DHT22;63954;51.948;5.888;2022-10-15T22:54:19;13.04;79.04
75368;DHT22;63954;51.948;5.888;2022-10-15T22:56:48;13.05;79.03
75368;DHT22;63954;51.948;5.888;2022-10-15T22:59:16;13.07;78.99
75368;DHT22;63954;51.948;5.888;2022-10-15T23:01:43;13.05;79.04
75368;DHT22;63954;51.948;5.888;2022-10-15T23:04:13;13.06;79.12
75368;DHT22;63954;51.948;5.888;2022-10-15T23:06:42;13.08;79.10
75368;DHT22;63954;51.948;5.888;2022-10-15T23:09:10;13.10;79.14
75368;DHT22;63954;51.948;5.888;2022-10-15T23:11:42;13.10;79.11
75368;DHT22;63954;51.948;5.888;2022-10-15T23:14:12;13.11;79.07
75368;DHT22;63954;51.948;5.888;2022-10-15T23:16:45;13.07;79.11
75368;DHT22;63954;51.948;5.888;2022-10-15T23:19:14;13.06;79.24
75368;DHT22;63954;51.948;5.888;2022-10-15T23:21:46;13.05;79.23
75368;DHT22;63954;51.948;5.888;2022-10-15T23:24:14;13.05;79.31
75368;DHT22;63954;51.948;5.888;2022-10-15T23:26:43;13.06;79.29
75368;DHT22;63954;51.948;5.888;2022-10-15T23:29:13;13.08;79.20
75368;DHT22;63954;51.948;5.888;2022-10-15T23:31:41;13.04;79.12
75368;DHT22;63954;51.948;5.888;2022-10-15T23:34:10;13.05;78.94
75368;DHT22;63954;51.948;5.888;2022-10-15T23:36:39;13.06;78.88
75368;DHT22;63954;51.948;5.888;2022-10-15T23:39:12;13.02;79.25
75368;DHT22;63954;51.948;5.888;2022-10-15T23:41:40;13.03;78.77
75368;DHT22;63954;51.948;5.888;2022-10-15T23:44:08;13.05;78.70
75368;DHT22;63954;51.948;5.888;2022-10-15T23:46:35;13.03;78.67
75368;DHT22;63954;51.948;5.888;2022-10-15T23:49:03;12.99;78.74
75368;DHT22;63954;51.948;5.888;2022-10-15T23:51:31;12.94;78.88
75368;DHT22;63954;51.948;5.888;2022-10-15T23:54:00;12.90;78.99
75368;DHT22;63954;51.948;5.888;2022-10-15T23:56:29;12.87;79.14
75368;DHT22;63954;51.948;5.888;2022-10-15T23:58:58;12.85;79.19
